Terminal Aerodrome Forecast
Issued by NWS El Paso, TX

Home | Current Version | Previous Version | Text Only | Print | Product List | Glossary On
Versions: 1 2 3 4 5 6 7 8 9 10 11 12 13 14
580
FTUS44 KEPZ 221120
TAFELP
TAF
KELP 221120Z 2212/2312 13005KT P6SM SKC
     FM222000 20010G16KT P6SM FEW080 SCT150
     FM230000 22010G18KT P6SM SCT050 BKN140
     FM230200 19010KT P6SM VCTS SCT070CB BKN120=

USA.gov is the U.S. government's official web portal to all federal, state and local government web resources and services.